sensor_id;sensor_type;location;lat;lon;timestamp;P1;P2;P0
65556;PMS3003;52200;53.490;14.376;2023-10-31T00:01:20;22.00;21.00;11.00
65556;PMS3003;52200;53.490;14.376;2023-10-31T00:03:46;23.00;21.40;11.20
65556;PMS3003;52200;53.490;14.376;2023-10-31T00:06:11;23.25;21.00;10.25
65556;PMS3003;52200;53.490;14.376;2023-10-31T00:08:37;27.00;22.75;11.00
65556;PMS3003;52200;53.490;14.376;2023-10-31T00:11:02;21.00;20.00;10.00
65556;PMS3003;52200;53.490;14.376;2023-10-31T00:13:28;20.00;19.25;11.00
65556;PMS3003;52200;53.490;14.376;2023-10-31T00:15:53;24.25;23.00;11.50
65556;PMS3003;52200;53.490;14.376;2023-10-31T00:18:18;22.50;22.25;11.00
65556;PMS3003;52200;53.490;14.376;2023-10-31T00:20:44;20.50;20.25;11.00
65556;PMS3003;52200;53.490;14.376;2023-10-31T00:23:11;17.20;17.20;9.80
65556;PMS3003;52200;53.490;14.376;2023-10-31T00:25:36;21.75;20.00;10.00
65556;PMS3003;52200;53.490;14.376;2023-10-31T00:28:02;22.50;21.50;11.00
65556;PMS3003;52200;53.490;14.376;2023-10-31T00:30:27;23.25;22.50;11.25
65556;PMS3003;52200;53.490;14.376;2023-10-31T00:32:53;24.25;20.75;10.50
65556;PMS3003;52200;53.490;14.376;2023-10-31T00:35:18;20.25;18.50;11.00
65556;PMS3003;52200;53.490;14.376;2023-10-31T00:37:44;21.25;20.00;10.00
65556;PMS3003;52200;53.490;14.376;2023-10-31T00:40:09;17.25;16.75;9.50
65556;PMS3003;52200;53.490;14.376;2023-10-31T00:42:36;22.80;20.80;12.00
65556;PMS3003;52200;53.490;14.376;2023-10-31T00:45:07;20.60;19.80;10.00
65556;PMS3003;52200;53.490;14.376;2023-10-31T00:47:33;21.60;18.80;10.80
65556;PMS3003;52200;53.490;14.376;2023-10-31T00:49:58;20.75;20.50;9.75
65556;PMS3003;52200;53.490;14.376;2023-10-31T00:52:23;22.00;21.25;10.25
65556;PMS3003;52200;53.490;14.376;2023-10-31T00:54:49;19.50;19.25;8.50
65556;PMS3003;52200;53.490;14.376;2023-10-31T00:57:14;20.25;19.50;10.00
65556;PMS3003;52200;53.490;14.376;2023-10-31T00:59:40;19.50;18.00;10.00
65556;PMS3003;52200;53.490;14.376;2023-10-31T01:02:05;21.75;20.25;10.75
65556;PMS3003;52200;53.490;14.376;2023-10-31T01:04:31;20.75;19.75;9.75
65556;PMS3003;52200;53.490;14.376;2023-10-31T01:06:56;20.00;18.75;10.50
65556;PMS3003;52200;53.490;14.376;2023-10-31T01:09:22;22.50;21.25;9.00
65556;PMS3003;52200;53.490;14.376;2023-10-31T01:11:48;20.00;18.25;11.00
65556;PMS3003;52200;53.490;14.376;2023-10-31T01:14:13;22.25;19.25;10.00
65556;PMS3003;52200;53.490;14.376;2023-10-31T01:16:39;22.00;21.20;9.20
65556;PMS3003;52200;53.490;14.376;2023-10-31T01:19:05;18.20;17.60;8.60
65556;PMS3003;52200;53.490;14.376;2023-10-31T01:21:31;18.50;17.75;8.00
65556;PMS3003;52200;53.490;14.376;2023-10-31T01:23:56;18.50;17.75;10.00
65556;PMS3003;52200;53.490;14.376;2023-10-31T01:26:23;23.40;21.20;10.60
65556;PMS3003;52200;53.490;14.376;2023-10-31T01:28:48;20.50;18.25;10.00
65556;PMS3003;52200;53.490;14.376;2023-10-31T01:31:14;20.00;20.00;8.25
65556;PMS3003;52200;53.490;14.376;2023-10-31T01:33:39;22.25;21.25;12.00
65556;PMS3003;52200;53.490;14.376;2023-10-31T01:36:05;22.50;21.75;10.00
65556;PMS3003;52200;53.490;14.376;2023-10-31T01:38:30;23.00;22.20;11.00
65556;PMS3003;52200;53.490;14.376;2023-10-31T01:40:56;23.50;22.00;10.50
65556;PMS3003;52200;53.490;14.376;2023-10-31T01:43:31;23.00;22.00;12.00
65556;PMS3003;52200;53.490;14.376;2023-10-31T01:45:57;25.60;23.00;12.80
65556;PMS3003;52200;53.490;14.376;2023-10-31T01:48:22;22.50;21.00;11.75
65556;PMS3003;52200;53.490;14.376;2023-10-31T01:50:50;24.40;21.60;12.80
65556;PMS3003;52200;53.490;14.376;2023-10-31T01:53:16;23.20;22.20;10.80
65556;PMS3003;52200;53.490;14.376;2023-10-31T01:55:42;25.00;23.00;11.25
65556;PMS3003;52200;53.490;14.376;2023-10-31T01:58:09;22.00;20.00;10.00
65556;PMS3003;52200;53.490;14.376;2023-10-31T02:00:36;20.80;20.40;10.00
65556;PMS3003;52200;53.490;14.376;2023-10-31T02:03:05;22.60;20.20;8.20
65556;PMS3003;52200;53.490;14.376;2023-10-31T02:05:32;21.20;20.20;10.60
65556;PMS3003;52200;53.490;14.376;2023-10-31T02:07:59;21.80;21.60;10.60
65556;PMS3003;52200;53.490;14.376;2023-10-31T02:10:25;22.60;20.60;10.80
65556;PMS3003;52200;53.490;14.376;2023-10-31T02:12:51;23.75;18.25;10.25
65556;PMS3003;52200;53.490;14.376;2023-10-31T02:15:16;22.25;21.50;11.00
65556;PMS3003;52200;53.490;14.376;2023-10-31T02:17:42;26.00;23.00;11.00
65556;PMS3003;52200;53.490;14.376;2023-10-31T02:20:07;27.50;24.25;12.00
65556;PMS3003;52200;53.490;14.376;2023-10-31T02:22:33;28.00;24.60;12.00
65556;PMS3003;52200;53.490;14.376;2023-10-31T02:24:58;19.75;19.25;11.75
65556;PMS3003;52200;53.490;14.376;2023-10-31T02:27:24;24.75;24.25;13.00
65556;PMS3003;52200;53.490;14.376;2023-10-31T02:29:49;25.00;23.50;13.00
65556;PMS3003;52200;53.490;14.376;2023-10-31T02:32:14;23.50;21.00;13.00
65556;PMS3003;52200;53.490;14.376;2023-10-31T02:34:40;24.50;24.25;12.25
65556;PMS3003;52200;53.490;14.376;2023-10-31T02:37:05;23.00;23.00;13.00
65556;PMS3003;52200;53.490;14.376;2023-10-31T02:39:31;24.25;23.00;11.00
65556;PMS3003;52200;53.490;14.376;2023-10-31T02:41:56;24.00;23.00;12.25
65556;PMS3003;52200;53.490;14.376;2023-10-31T02:44:23;24.60;23.20;13.20
65556;PMS3003;52200;53.490;14.376;2023-10-31T02:46:48;27.75;25.50;14.00
65556;PMS3003;52200;53.490;14.376;2023-10-31T02:49:14;21.50;21.25;11.25
65556;PMS3003;52200;53.490;14.376;2023-10-31T02:51:39;20.50;19.75;11.00
65556;PMS3003;52200;53.490;14.376;2023-10-31T02:54:05;23.00;21.50;11.75
65556;PMS3003;52200;53.490;14.376;2023-10-31T02:56:30;24.20;22.40;12.60
65556;PMS3003;52200;53.490;14.376;2023-10-31T02:58:56;26.00;23.50;12.00
65556;PMS3003;52200;53.490;14.376;2023-10-31T03:01:21;25.75;24.00;12.00
65556;PMS3003;52200;53.490;14.376;2023-10-31T03:03:47;24.25;23.25;12.75
65556;PMS3003;52200;53.490;14.376;2023-10-31T03:06:12;24.50;23.75;12.50
65556;PMS3003;52200;53.490;14.376;2023-10-31T03:08:37;25.25;22.75;11.50
65556;PMS3003;52200;53.490;14.376;2023-10-31T03:11:03;28.00;26.25;14.00
65556;PMS3003;52200;53.490;14.376;2023-10-31T03:13:28;28.75;26.75;14.00
65556;PMS3003;52200;53.490;14.376;2023-10-31T03:15:54;33.75;30.50;16.00
65556;PMS3003;52200;53.490;14.376;2023-10-31T03:18:19;27.00;25.00;14.75
65556;PMS3003;52200;53.490;14.376;2023-10-31T03:20:44;25.50;24.00;13.00
65556;PMS3003;52200;53.490;14.376;2023-10-31T03:23:13;26.40;26.00;14.00
65556;PMS3003;52200;53.490;14.376;2023-10-31T03:25:39;28.50;25.00;13.50
65556;PMS3003;52200;53.490;14.376;2023-10-31T03:28:07;30.75;28.00;14.00
65556;PMS3003;52200;53.490;14.376;2023-10-31T03:30:43;23.40;23.00;13.40
65556;PMS3003;52200;53.490;14.376;2023-10-31T03:33:08;29.25;28.50;17.00
65556;PMS3003;52200;53.490;14.376;2023-10-31T03:35:33;24.75;22.75;13.00
65556;PMS3003;52200;53.490;14.376;2023-10-31T03:37:59;29.25;29.00;15.25
65556;PMS3003;52200;53.490;14.376;2023-10-31T03:40:24;29.00;28.75;14.25
65556;PMS3003;52200;53.490;14.376;2023-10-31T03:42:50;31.75;31.50;15.00
65556;PMS3003;52200;53.490;14.376;2023-10-31T03:45:15;27.25;24.25;14.50
65556;PMS3003;52200;53.490;14.376;2023-10-31T03:47:40;25.00;25.00;14.25
65556;PMS3003;52200;53.490;14.376;2023-10-31T03:50:06;24.50;24.25;14.00
65556;PMS3003;52200;53.490;14.376;2023-10-31T03:52:33;25.00;23.60;13.40
65556;PMS3003;52200;53.490;14.376;2023-10-31T03:54:59;32.25;30.50;16.00
65556;PMS3003;52200;53.490;14.376;2023-10-31T03:57:24;29.25;27.75;15.75
65556;PMS3003;52200;53.490;14.376;2023-10-31T03:59:49;30.75;29.50;15.00
65556;PMS3003;52200;53.490;14.376;2023-10-31T04:02:15;27.50;24.00;14.00
65556;PMS3003;52200;53.490;14.376;2023-10-31T04:04:40;27.25;25.75;14.00
65556;PMS3003;52200;53.490;14.376;2023-10-31T04:07:06;31.50;29.00;15.25
65556;PMS3003;52200;53.490;14.376;2023-10-31T04:09:32;27.40;26.00;14.80
65556;PMS3003;52200;53.490;14.376;2023-10-31T04:11:57;25.00;23.75;14.25
65556;PMS3003;52200;53.490;14.376;2023-10-31T04:14:22;28.25;25.25;13.25
65556;PMS3003;52200;53.490;14.376;2023-10-31T04:16:48;32.75;32.00;16.00
65556;PMS3003;52200;53.490;14.376;2023-10-31T04:19:13;30.00;27.00;15.00
65556;PMS3003;52200;53.490;14.376;2023-10-31T04:21:39;29.50;28.50;16.00
65556;PMS3003;52200;53.490;14.376;2023-10-31T04:24:04;32.25;30.25;16.00
65556;PMS3003;52200;53.490;14.376;2023-10-31T04:26:30;29.80;29.60;15.60
65556;PMS3003;52200;53.490;14.376;2023-10-31T04:28:56;32.25;29.50;14.50
65556;PMS3003;52200;53.490;14.376;2023-10-31T04:31:21;28.50;26.25;15.00
65556;PMS3003;52200;53.490;14.376;2023-10-31T04:33:47;33.75;29.50;14.50
65556;PMS3003;52200;53.490;14.376;2023-10-31T04:36:12;30.75;28.50;14.75
65556;PMS3003;52200;53.490;14.376;2023-10-31T04:38:38;26.75;26.00;15.00
65556;PMS3003;52200;53.490;14.376;2023-10-31T04:41:03;28.25;27.00;14.00
65556;PMS3003;52200;53.490;14.376;2023-10-31T04:43:29;26.00;24.50;14.00
65556;PMS3003;52200;53.490;14.376;2023-10-31T04:45:54;28.75;28.50;14.50
65556;PMS3003;52200;53.490;14.376;2023-10-31T04:48:19;29.75;28.75;17.00
65556;PMS3003;52200;53.490;14.376;2023-10-31T04:50:45;31.50;27.75;15.50
65556;PMS3003;52200;53.490;14.376;2023-10-31T04:53:10;32.00;29.00;15.75
65556;PMS3003;52200;53.490;14.376;2023-10-31T04:55:36;28.00;26.75;15.00
65556;PMS3003;52200;53.490;14.376;2023-10-31T04:58:02;34.25;31.75;16.00
65556;PMS3003;52200;53.490;14.376;2023-10-31T05:00:27;29.00;26.00;14.50
65556;PMS3003;52200;53.490;14.376;2023-10-31T05:02:52;30.50;26.00;14.75
65556;PMS3003;52200;53.490;14.376;2023-10-31T05:05:18;31.40;28.80;15.00
65556;PMS3003;52200;53.490;14.376;2023-10-31T05:07:44;30.00;27.75;16.00
65556;PMS3003;52200;53.490;14.376;2023-10-31T05:10:10;30.25;28.50;16.00
65556;PMS3003;52200;53.490;14.376;2023-10-31T05:12:35;25.75;24.50;15.25
65556;PMS3003;52200;53.490;14.376;2023-10-31T05:15:02;30.00;28.20;15.00
65556;PMS3003;52200;53.490;14.376;2023-10-31T05:17:27;31.20;30.00;16.20
65556;PMS3003;52200;53.490;14.376;2023-10-31T05:19:53;27.50;27.00;15.00
65556;PMS3003;52200;53.490;14.376;2023-10-31T05:22:18;28.00;27.00;16.00
65556;PMS3003;52200;53.490;14.376;2023-10-31T05:24:44;29.25;25.50;15.00
65556;PMS3003;52200;53.490;14.376;2023-10-31T05:27:09;27.75;26.00;15.00
65556;PMS3003;52200;53.490;14.376;2023-10-31T05:29:35;27.25;26.75;16.25
65556;PMS3003;52200;53.490;14.376;2023-10-31T05:32:02;30.00;28.40;15.00
65556;PMS3003;52200;53.490;14.376;2023-10-31T05:34:28;30.20;26.60;15.00
65556;PMS3003;52200;53.490;14.376;2023-10-31T05:36:54;27.25;25.00;15.25
65556;PMS3003;52200;53.490;14.376;2023-10-31T05:39:19;33.00;26.25;14.50
65556;PMS3003;52200;53.490;14.376;2023-10-31T05:41:44;28.50;26.75;16.00
65556;PMS3003;52200;53.490;14.376;2023-10-31T05:44:10;28.75;28.00;16.00
65556;PMS3003;52200;53.490;14.376;2023-10-31T05:46:39;29.25;27.50;16.75
65556;PMS3003;52200;53.490;14.376;2023-10-31T05:49:06;26.60;26.40;14.80
65556;PMS3003;52200;53.490;14.376;2023-10-31T05:51:32;27.20;26.60;15.00
65556;PMS3003;52200;53.490;14.376;2023-10-31T05:53:57;31.75;30.25;15.75
65556;PMS3003;52200;53.490;14.376;2023-10-31T05:56:23;26.75;24.75;14.50
65556;PMS3003;52200;53.490;14.376;2023-10-31T05:58:48;27.00;25.25;14.50
65556;PMS3003;52200;53.490;14.376;2023-10-31T06:01:14;25.50;24.50;14.75
65556;PMS3003;52200;53.490;14.376;2023-10-31T06:03:42;33.00;31.50;15.75
65556;PMS3003;52200;53.490;14.376;2023-10-31T06:06:09;26.40;25.00;14.40
65556;PMS3003;52200;53.490;14.376;2023-10-31T06:08:35;27.00;26.80;15.20
65556;PMS3003;52200;53.490;14.376;2023-10-31T06:11:00;25.50;24.50;15.00
65556;PMS3003;52200;53.490;14.376;2023-10-31T06:13:26;28.20;27.20;14.60
65556;PMS3003;52200;53.490;14.376;2023-10-31T06:15:52;29.75;29.50;15.25
65556;PMS3003;52200;53.490;14.376;2023-10-31T06:18:19;29.80;29.20;16.40
65556;PMS3003;52200;53.490;14.376;2023-10-31T06:20:44;28.75;26.75;15.00
65556;PMS3003;52200;53.490;14.376;2023-10-31T06:23:10;30.00;27.50;15.50
65556;PMS3003;52200;53.490;14.376;2023-10-31T06:25:35;33.50;31.00;14.75
65556;PMS3003;52200;53.490;14.376;2023-10-31T06:28:00;27.50;26.25;14.75
65556;PMS3003;52200;53.490;14.376;2023-10-31T06:30:26;28.00;24.50;13.75
65556;PMS3003;52200;53.490;14.376;2023-10-31T06:32:52;26.00;25.00;13.50
65556;PMS3003;52200;53.490;14.376;2023-10-31T06:35:18;30.00;29.00;16.00
65556;PMS3003;52200;53.490;14.376;2023-10-31T06:37:44;29.75;28.00;16.00
65556;PMS3003;52200;53.490;14.376;2023-10-31T06:40:09;27.00;26.00;15.75
65556;PMS3003;52200;53.490;14.376;2023-10-31T06:42:35;34.20;31.00;17.00
65556;PMS3003;52200;53.490;14.376;2023-10-31T06:45:01;31.00;30.20;16.20
65556;PMS3003;52200;53.490;14.376;2023-10-31T06:47:27;35.60;33.20;18.00
65556;PMS3003;52200;53.490;14.376;2023-10-31T06:49:53;30.50;29.25;15.00
65556;PMS3003;52200;53.490;14.376;2023-10-31T06:52:18;30.25;29.50;16.50
65556;PMS3003;52200;53.490;14.376;2023-10-31T06:54:43;30.00;28.75;15.00
65556;PMS3003;52200;53.490;14.376;2023-10-31T06:57:09;29.75;29.50;17.00
65556;PMS3003;52200;53.490;14.376;2023-10-31T06:59:34;32.25;30.00;16.00
65556;PMS3003;52200;53.490;14.376;2023-10-31T07:02:00;35.75;32.75;20.00
65556;PMS3003;52200;53.490;14.376;2023-10-31T07:04:25;30.00;28.75;17.00
65556;PMS3003;52200;53.490;14.376;2023-10-31T07:06:51;31.00;29.50;15.50
65556;PMS3003;52200;53.490;14.376;2023-10-31T07:09:22;28.80;28.00;16.00
65556;PMS3003;52200;53.490;14.376;2023-10-31T07:11:51;32.20;31.00;16.00
65556;PMS3003;52200;53.490;14.376;2023-10-31T07:14:17;29.50;28.50;15.50
65556;PMS3003;52200;53.490;14.376;2023-10-31T07:16:42;28.00;25.75;14.50
65556;PMS3003;52200;53.490;14.376;2023-10-31T07:19:11;31.40;29.00;15.20
65556;PMS3003;52200;53.490;14.376;2023-10-31T07:21:37;30.60;28.00;15.80
65556;PMS3003;52200;53.490;14.376;2023-10-31T07:24:02;32.50;30.75;16.75
65556;PMS3003;52200;53.490;14.376;2023-10-31T07:26:28;35.50;33.00;16.25
65556;PMS3003;52200;53.490;14.376;2023-10-31T07:28:54;28.25;28.25;15.75
65556;PMS3003;52200;53.490;14.376;2023-10-31T07:31:19;31.00;29.75;17.25
65556;PMS3003;52200;53.490;14.376;2023-10-31T07:33:45;28.50;27.00;16.00
65556;PMS3003;52200;53.490;14.376;2023-10-31T07:36:11;32.00;26.50;16.00
65556;PMS3003;52200;53.490;14.376;2023-10-31T07:38:36;33.00;28.75;15.50
65556;PMS3003;52200;53.490;14.376;2023-10-31T07:41:02;32.50;28.00;15.25
65556;PMS3003;52200;53.490;14.376;2023-10-31T07:43:27;27.25;27.25;16.25
65556;PMS3003;52200;53.490;14.376;2023-10-31T07:45:53;26.75;26.00;14.75
65556;PMS3003;52200;53.490;14.376;2023-10-31T07:48:18;25.50;25.50;15.00
65556;PMS3003;52200;53.490;14.376;2023-10-31T07:50:44;30.25;29.25;16.75
65556;PMS3003;52200;53.490;14.376;2023-10-31T07:53:09;34.00;32.00;17.00
65556;PMS3003;52200;53.490;14.376;2023-10-31T07:55:34;28.00;25.25;15.00
65556;PMS3003;52200;53.490;14.376;2023-10-31T07:58:00;27.50;25.75;15.25
65556;PMS3003;52200;53.490;14.376;2023-10-31T08:00:25;28.00;26.00;15.25
65556;PMS3003;52200;53.490;14.376;2023-10-31T08:02:51;33.00;29.25;15.00
65556;PMS3003;52200;53.490;14.376;2023-10-31T08:05:17;34.00;32.25;16.00
65556;PMS3003;52200;53.490;14.376;2023-10-31T08:07:42;30.75;28.50;15.00
65556;PMS3003;52200;53.490;14.376;2023-10-31T08:10:08;34.00;32.50;15.25
65556;PMS3003;52200;53.490;14.376;2023-10-31T08:12:33;33.25;32.75;16.50
65556;PMS3003;52200;53.490;14.376;2023-10-31T08:15:00;28.00;26.80;14.40
65556;PMS3003;52200;53.490;14.376;2023-10-31T08:17:26;31.80;30.40;16.60
65556;PMS3003;52200;53.490;14.376;2023-10-31T08:19:51;31.00;27.75;16.00
65556;PMS3003;52200;53.490;14.376;2023-10-31T08:22:17;31.25;30.25;15.00
65556;PMS3003;52200;53.490;14.376;2023-10-31T08:24:42;27.25;26.00;15.75
65556;PMS3003;52200;53.490;14.376;2023-10-31T08:27:07;34.25;29.25;17.00
65556;PMS3003;52200;53.490;14.376;2023-10-31T08:29:33;29.50;28.25;15.00
65556;PMS3003;52200;53.490;14.376;2023-10-31T08:31:58;31.00;30.00;16.50
65556;PMS3003;52200;53.490;14.376;2023-10-31T08:34:24;31.00;28.75;14.75
65556;PMS3003;52200;53.490;14.376;2023-10-31T08:36:49;30.75;28.25;16.00
65556;PMS3003;52200;53.490;14.376;2023-10-31T08:39:15;30.00;26.00;14.50
65556;PMS3003;52200;53.490;14.376;2023-10-31T08:41:53;32.25;28.50;15.75
65556;PMS3003;52200;53.490;14.376;2023-10-31T08:44:20;27.60;24.00;14.60
65556;PMS3003;52200;53.490;14.376;2023-10-31T08:46:45;29.25;27.50;14.00
65556;PMS3003;52200;53.490;14.376;2023-10-31T08:49:11;25.75;24.25;12.75
65556;PMS3003;52200;53.490;14.376;2023-10-31T08:51:37;21.20;20.20;12.80
65556;PMS3003;52200;53.490;14.376;2023-10-31T08:54:03;26.50;23.50;14.00
65556;PMS3003;52200;53.490;14.376;2023-10-31T08:56:28;26.00;23.25;13.00
65556;PMS3003;52200;53.490;14.376;2023-10-31T08:58:54;20.00;20.00;12.00
65556;PMS3003;52200;53.490;14.376;2023-10-31T09:01:19;19.00;18.75;9.25
65556;PMS3003;52200;53.490;14.376;2023-10-31T09:03:45;21.50;19.50;10.50
65556;PMS3003;52200;53.490;14.376;2023-10-31T09:06:10;17.50;17.50;8.00
65556;PMS3003;52200;53.490;14.376;2023-10-31T09:08:36;18.50;18.50;8.50
65556;PMS3003;52200;53.490;14.376;2023-10-31T09:11:03;19.00;17.00;7.80
65556;PMS3003;52200;53.490;14.376;2023-10-31T09:13:30;23.80;21.00;10.20
65556;PMS3003;52200;53.490;14.376;2023-10-31T09:15:57;17.80;17.80;8.80
65556;PMS3003;52200;53.490;14.376;2023-10-31T09:18:25;16.80;16.00;7.20
65556;PMS3003;52200;53.490;14.376;2023-10-31T09:20:51;16.40;16.00;7.80
65556;PMS3003;52200;53.490;14.376;2023-10-31T09:23:17;14.75;14.25;6.00
65556;PMS3003;52200;53.490;14.376;2023-10-31T09:25:43;15.75;15.00;7.00
65556;PMS3003;52200;53.490;14.376;2023-10-31T09:28:09;14.20;13.40;5.40
65556;PMS3003;52200;53.490;14.376;2023-10-31T09:30:35;15.25;14.50;5.50
65556;PMS3003;52200;53.490;14.376;2023-10-31T09:33:00;12.75;12.25;5.25
65556;PMS3003;52200;53.490;14.376;2023-10-31T09:35:26;9.50;9.25;4.00
65556;PMS3003;52200;53.490;14.376;2023-10-31T09:37:51;13.75;12.75;4.75
65556;PMS3003;52200;53.490;14.376;2023-10-31T09:40:17;9.20;8.60;3.40
65556;PMS3003;52200;53.490;14.376;2023-10-31T09:42:46;11.50;11.00;5.00
65556;PMS3003;52200;53.490;14.376;2023-10-31T09:45:11;10.60;9.40;3.40
65556;PMS3003;52200;53.490;14.376;2023-10-31T09:47:38;10.00;10.00;4.00
65556;PMS3003;52200;53.490;14.376;2023-10-31T09:50:05;9.80;9.20;4.60
65556;PMS3003;52200;53.490;14.376;2023-10-31T09:52:31;9.00;9.00;5.00
65556;PMS3003;52200;53.490;14.376;2023-10-31T09:54:57;8.60;8.00;3.00
65556;PMS3003;52200;53.490;14.376;2023-10-31T09:57:24;9.40;9.40;4.40
65556;PMS3003;52200;53.490;14.376;2023-10-31T09:59:51;12.00;12.00;5.20
65556;PMS3003;52200;53.490;14.376;2023-10-31T10:02:16;10.00;9.75;5.00
65556;PMS3003;52200;53.490;14.376;2023-10-31T10:04:42;12.25;12.25;4.00
65556;PMS3003;52200;53.490;14.376;2023-10-31T10:07:07;12.75;12.00;5.00
65556;PMS3003;52200;53.490;14.376;2023-10-31T10:09:33;13.50;13.25;5.00
65556;PMS3003;52200;53.490;14.376;2023-10-31T10:11:58;9.00;9.00;4.00
65556;PMS3003;52200;53.490;14.376;2023-10-31T10:14:25;10.20;10.20;4.80
65556;PMS3003;52200;53.490;14.376;2023-10-31T10:16:53;9.00;9.00;5.00
65556;PMS3003;52200;53.490;14.376;2023-10-31T10:19:20;11.20;10.00;4.00
65556;PMS3003;52200;53.490;14.376;2023-10-31T10:21:56;12.20;11.00;4.20
65556;PMS3003;52200;53.490;14.376;2023-10-31T10:24:23;8.60;8.60;4.00
65556;PMS3003;52200;53.490;14.376;2023-10-31T10:26:50;10.00;9.80;4.00
65556;PMS3003;52200;53.490;14.376;2023-10-31T10:29:16;14.60;13.60;6.00
65556;PMS3003;52200;53.490;14.376;2023-10-31T10:31:42;11.20;11.20;5.60
65556;PMS3003;52200;53.490;14.376;2023-10-31T10:34:08;14.00;14.00;6.25
65556;PMS3003;52200;53.490;14.376;2023-10-31T10:36:34;9.40;9.00;4.20
65556;PMS3003;52200;53.490;14.376;2023-10-31T10:39:00;10.25;9.50;4.00
65556;PMS3003;52200;53.490;14.376;2023-10-31T10:41:27;6.40;6.40;2.00
65556;PMS3003;52200;53.490;14.376;2023-10-31T10:43:56;7.60;6.60;2.00
65556;PMS3003;52200;53.490;14.376;2023-10-31T10:46:28;6.00;6.00;2.60
65556;PMS3003;52200;53.490;14.376;2023-10-31T10:48:58;5.80;5.80;2.60
65556;PMS3003;52200;53.490;14.376;2023-10-31T10:51:27;7.60;7.60;3.00
65556;PMS3003;52200;53.490;14.376;2023-10-31T10:54:08;8.00;8.00;4.00
65556;PMS3003;52200;53.490;14.376;2023-10-31T10:56:41;11.00;11.00;4.00
65556;PMS3003;52200;53.490;14.376;2023-10-31T10:59:15;9.20;9.00;4.00
65556;PMS3003;52200;53.490;14.376;2023-10-31T11:01:45;11.60;11.60;5.00
65556;PMS3003;52200;53.490;14.376;2023-10-31T11:04:11;9.20;9.20;4.00
65556;PMS3003;52200;53.490;14.376;2023-10-31T11:06:38;10.80;10.80;5.00
65556;PMS3003;52200;53.490;14.376;2023-10-31T11:09:06;9.60;9.60;4.40
65556;PMS3003;52200;53.490;14.376;2023-10-31T11:11:35;10.60;9.80;3.00
65556;PMS3003;52200;53.490;14.376;2023-10-31T11:14:03;11.60;9.00;4.00
65556;PMS3003;52200;53.490;14.376;2023-10-31T11:16:39;10.60;10.00;4.00
65556;PMS3003;52200;53.490;14.376;2023-10-31T11:19:16;9.80;8.80;3.00
65556;PMS3003;52200;53.490;14.376;2023-10-31T11:21:55;9.80;9.80;4.00
65556;PMS3003;52200;53.490;14.376;2023-10-31T11:24:23;6.20;6.20;2.00
65556;PMS3003;52200;53.490;14.376;2023-10-31T11:26:57;6.60;6.60;2.40
65556;PMS3003;52200;53.490;14.376;2023-10-31T11:29:24;8.00;7.40;3.00
65556;PMS3003;52200;53.490;14.376;2023-10-31T11:31:51;5.20;5.20;1.40
65556;PMS3003;52200;53.490;14.376;2023-10-31T11:34:16;6.00;6.00;1.75
65556;PMS3003;52200;53.490;14.376;2023-10-31T11:36:44;5.80;5.80;1.20
65556;PMS3003;52200;53.490;14.376;2023-10-31T11:41:48;5.00;5.00;2.00
65556;PMS3003;52200;53.490;14.376;2023-10-31T11:44:15;4.80;4.00;1.00
65556;PMS3003;52200;53.490;14.376;2023-10-31T11:46:43;4.20;4.20;0.40
65556;PMS3003;52200;53.490;14.376;2023-10-31T11:49:12;3.60;3.20;1.00
65556;PMS3003;52200;53.490;14.376;2023-10-31T11:51:38;3.75;3.75;1.00
65556;PMS3003;52200;53.490;14.376;2023-10-31T11:54:03;2.00;2.00;0.00
65556;PMS3003;52200;53.490;14.376;2023-10-31T11:56:33;4.00;4.00;0.00
65556;PMS3003;52200;53.490;14.376;2023-10-31T11:59:02;3.25;3.00;0.00
65556;PMS3003;52200;53.490;14.376;2023-10-31T12:01:29;2.00;2.00;0.00
65556;PMS3003;52200;53.490;14.376;2023-10-31T12:03:54;2.00;2.00;0.00
65556;PMS3003;52200;53.490;14.376;2023-10-31T12:06:20;2.75;2.00;0.00
65556;PMS3003;52200;53.490;14.376;2023-10-31T12:08:46;3.00;3.00;0.00
65556;PMS3003;52200;53.490;14.376;2023-10-31T12:13:39;2.25;2.25;0.00
65556;PMS3003;52200;53.490;14.376;2023-10-31T12:16:07;3.00;3.00;0.00
65556;PMS3003;52200;53.490;14.376;2023-10-31T12:18:34;3.80;3.80;0.00
65556;PMS3003;52200;53.490;14.376;2023-10-31T12:21:01;2.00;2.00;0.00
65556;PMS3003;52200;53.490;14.376;2023-10-31T12:23:27;4.40;3.80;0.20
65556;PMS3003;52200;53.490;14.376;2023-10-31T12:25:54;2.60;2.60;0.00
65556;PMS3003;52200;53.490;14.376;2023-10-31T12:28:20;2.00;2.00;0.00
65556;PMS3003;52200;53.490;14.376;2023-10-31T12:30:47;2.00;2.00;0.00
65556;PMS3003;52200;53.490;14.376;2023-10-31T12:33:13;1.80;1.20;0.00
65556;PMS3003;52200;53.490;14.376;2023-10-31T12:35:39;2.00;2.00;0.00
65556;PMS3003;52200;53.490;14.376;2023-10-31T12:38:05;2.60;2.60;0.00
65556;PMS3003;52200;53.490;14.376;2023-10-31T12:40:32;2.00;2.00;0.00
65556;PMS3003;52200;53.490;14.376;2023-10-31T12:42:59;3.00;2.60;0.00
65556;PMS3003;52200;53.490;14.376;2023-10-31T12:45:25;2.20;2.20;0.00
65556;PMS3003;52200;53.490;14.376;2023-10-31T12:48:00;3.00;2.00;0.00
65556;PMS3003;52200;53.490;14.376;2023-10-31T12:50:37;2.20;2.20;0.00
65556;PMS3003;52200;53.490;14.376;2023-10-31T12:53:05;2.00;2.00;0.00
65556;PMS3003;52200;53.490;14.376;2023-10-31T12:55:37;1.60;1.60;0.00
65556;PMS3003;52200;53.490;14.376;2023-10-31T12:58:04;2.00;2.00;0.00
65556;PMS3003;52200;53.490;14.376;2023-10-31T13:00:33;2.00;2.00;0.00
65556;PMS3003;52200;53.490;14.376;2023-10-31T13:03:06;2.80;2.80;0.00
65556;PMS3003;52200;53.490;14.376;2023-10-31T13:05:36;3.00;3.00;0.00
65556;PMS3003;52200;53.490;14.376;2023-10-31T13:08:08;3.80;3.00;0.00
65556;PMS3003;52200;53.490;14.376;2023-10-31T13:10:38;2.80;2.80;0.00
65556;PMS3003;52200;53.490;14.376;2023-10-31T13:13:04;2.80;2.80;0.00
65556;PMS3003;52200;53.490;14.376;2023-10-31T13:15:30;3.00;2.50;0.00
65556;PMS3003;52200;53.490;14.376;2023-10-31T13:17:55;2.00;2.00;0.00
65556;PMS3003;52200;53.490;14.376;2023-10-31T13:20:22;2.60;2.00;0.00
65556;PMS3003;52200;53.490;14.376;2023-10-31T13:22:47;3.00;3.00;0.00
65556;PMS3003;52200;53.490;14.376;2023-10-31T13:25:14;3.00;2.40;0.00
65556;PMS3003;52200;53.490;14.376;2023-10-31T13:27:41;2.80;2.40;0.00
65556;PMS3003;52200;53.490;14.376;2023-10-31T13:30:08;2.00;2.00;0.00
65556;PMS3003;52200;53.490;14.376;2023-10-31T13:32:39;3.00;3.00;0.00
65556;PMS3003;52200;53.490;14.376;2023-10-31T13:35:06;1.80;1.80;0.00
65556;PMS3003;52200;53.490;14.376;2023-10-31T13:37:34;3.00;3.00;0.00
65556;PMS3003;52200;53.490;14.376;2023-10-31T13:40:00;4.00;3.25;0.00
65556;PMS3003;52200;53.490;14.376;2023-10-31T13:42:25;4.00;3.00;0.00
65556;PMS3003;52200;53.490;14.376;2023-10-31T13:44:51;3.25;3.00;0.00